Time;durP1;ratioP1;P1;durP2;ratioP2;P2;SDS_P1;SDS_P2;PMS_P1;PMS_P2;Temp;Humidity;BMP_temperature;BMP_pressure;BME280_temperature;BME280_humidity;BME280_pressure;Samples;Min_cycle;Max_cycle;Signal;HPM_P1;HPM_P2
2023/02/22 00:02:24;;;;;;;;;;;;;;;;;;5066972;28;19920;-60
2023/02/22 00:04:49;;;;;;;;;;;;;;;;;;5076406;28;20045;-59
2023/02/22 00:07:16;;;;;;;;;;;;;;;;;;5075049;28;19922;-59
2023/02/22 00:09:42;;;;;;;;;;;;;;;;;;5065580;28;21459;-60
2023/02/22 00:12:09;;;;;;;;;;;;;;;;;;5061460;28;19927;-59
2023/02/22 00:14:34;;;;;;;;;;;;;;;;;;5074640;28;19908;-60
2023/02/22 00:17:01;;;;;;;;;;;;;;;;;;5055895;28;19917;-59
2023/02/22 00:19:29;;;;;;;;;;;;;;;;;;5065503;28;20364;-59
2023/02/22 00:21:56;;;;;;;;;;;;;;;;;;5075744;28;20367;-59
2023/02/22 00:24:22;;;;;;;;;;;;;;;;;;5073089;28;19912;-59
2023/02/22 00:26:48;;;;;;;;;;;;;;;;;;5059128;28;19963;-59
2023/02/22 00:29:14;;;;;;;;;;;;;;;;;;5055494;28;19916;-59
2023/02/22 00:31:40;;;;;;;;;;;;;;;;;;5055158;28;20007;-59
2023/02/22 00:34:06;;;;;;;;;;;;;;;;;;5069057;28;19919;-59
2023/02/22 00:36:32;;;;;;;;;;;;;;;;;;5075006;28;19916;-59
2023/02/22 00:38:58;;;;;;;;;;;;;;;;;;5060329;28;19913;-59
2023/02/22 00:41:23;;;;;;;;;;;;;;;;;;5055516;28;19978;-59
2023/02/22 00:43:49;;;;;;;;;;;;;;;;;;5073267;28;20296;-59
2023/02/22 00:46:15;;;;;;;;;;;;;;;;;;5074175;28;19913;-59
2023/02/22 00:48:41;;;;;;;;;;;;;;;;;;5055491;28;19936;-59
2023/02/22 00:51:07;;;;;;;;;;;;;;;;;;5066857;28;19970;-59
2023/02/22 00:53:33;;;;;;;;;;;;;;;;;;5070931;28;19952;-59
2023/02/22 00:55:59;;;;;;;;;;;;;;;;;;5066770;28;20363;-59
2023/02/22 00:58:25;;;;;;;;;;;;;;;;;;5072427;28;19919;-59
2023/02/22 01:00:51;;;;;;;;;;;;;;;;;;5065077;28;19913;-59
2023/02/22 01:03:17;;;;;;;;;;;;;;;;;;5057067;28;19909;-59
2023/02/22 01:05:43;;;;;;;;;;;;;;;;;;5054326;28;20364;-58
2023/02/22 01:08:09;;;;;;;;;;;;;;;;;;5054921;28;20015;-59
2023/02/22 01:10:35;;;;;;;;;;;;;;;;;;5069683;28;19963;-59
2023/02/22 01:13:03;;;;;;;;;;;;;;;;;;5066312;28;19917;-59
2023/02/22 01:15:29;;;;;;;;;;;;;;;;;;5071818;28;19923;-59
2023/02/22 01:17:57;;;;;;;;;;;;;;;;;;5071267;28;20433;-58
2023/02/22 01:20:24;;;;;;;;;;;;;;;;;;5063751;28;19909;-59
2023/02/22 01:22:50;;;;;;;;;;;;;;;;;;5071638;28;20288;-58
2023/02/22 01:25:16;;;;;;;;;;;;;;;;;;5067387;28;19913;-60
2023/02/22 01:27:42;;;;;;;;;;;;;;;;;;5060716;28;20029;-59
2023/02/22 01:30:08;;;;;;;;;;;;;;;;;;5068841;28;19952;-59
2023/02/22 01:32:34;;;;;;;;;;;;;;;;;;5072161;28;19923;-60
2023/02/22 01:35:00;;;;;;;;;;;;;;;;;;5059866;28;19960;-59
2023/02/22 01:37:26;;;;;;;;;;;;;;;;;;5056990;28;19908;-58
2023/02/22 01:39:52;;;;;;;;;;;;;;;;;;5053854;28;19939;-60
2023/02/22 01:42:18;;;;;;;;;;;;;;;;;;5060185;28;19919;-60
2023/02/22 01:44:44;;;;;;;;;;;;;;;;;;5069321;28;19959;-59
2023/02/22 01:47:10;;;;;;;;;;;;;;;;;;5064373;28;19965;-59
2023/02/22 01:49:36;;;;;;;;;;;;;;;;;;5072545;28;20276;-59
2023/02/22 01:52:02;;;;;;;;;;;;;;;;;;5073323;28;20402;-59
2023/02/22 01:54:28;;;;;;;;;;;;;;;;;;5073914;28;19948;-60
2023/02/22 01:56:54;;;;;;;;;;;;;;;;;;5066071;28;19951;-60
2023/02/22 01:59:20;;;;;;;;;;;;;;;;;;5069026;28;19917;-57
2023/02/22 02:01:46;;;;;;;;;;;;;;;;;;5193411;22;19932;-79
2023/02/22 02:04:12;;;;;;;;;;;;;;;;;;5049453;28;19960;-79
2023/02/22 02:06:38;;;;;;;;;;;;;;;;;;5051228;28;19927;-79
2023/02/22 02:11:34;;;;;;;;;;;;;;;;;;5030274;28;20077;-58
2023/02/22 02:14:00;;;;;;;;;;;;;;;;;;5030340;28;19960;-58
2023/02/22 02:16:26;;;;;;;;;;;;;;;;;;5026555;28;19923;-59
2023/02/22 02:18:52;;;;;;;;;;;;;;;;;;5031340;28;20360;-60
2023/02/22 02:21:18;;;;;;;;;;;;;;;;;;5032392;28;19965;-59
2023/02/22 02:23:44;;;;;;;;;;;;;;;;;;5031432;28;20344;-59
2023/02/22 02:26:10;;;;;;;;;;;;;;;;;;5032474;28;19920;-59
2023/02/22 02:28:36;;;;;;;;;;;;;;;;;;5033253;28;19936;-59
2023/02/22 02:31:01;;;;;;;;;;;;;;;;;;5032581;28;19921;-59
2023/02/22 02:33:27;;;;;;;;;;;;;;;;;;5030250;28;19948;-59
2023/02/22 02:35:53;;;;;;;;;;;;;;;;;;5030339;28;19913;-59
2023/02/22 02:38:19;;;;;;;;;;;;;;;;;;5032165;28;19917;-59
2023/02/22 02:40:46;;;;;;;;;;;;;;;;;;5030578;28;19944;-62
2023/02/22 02:43:12;;;;;;;;;;;;;;;;;;5032429;28;19920;-59
2023/02/22 02:45:38;;;;;;;;;;;;;;;;;;5032116;28;20292;-59
2023/02/22 02:48:04;;;;;;;;;;;;;;;;;;5032417;28;20004;-59
2023/02/22 02:50:30;;;;;;;;;;;;;;;;;;5030159;28;19913;-59
2023/02/22 02:52:55;;;;;;;;;;;;;;;;;;5032463;28;20028;-60
2023/02/22 02:55:21;;;;;;;;;;;;;;;;;;5030689;28;19976;-59
2023/02/22 02:57:47;;;;;;;;;;;;;;;;;;5030976;28;19956;-59
2023/02/22 03:00:22;;;;;;;;;;;;;;;;;;5032527;28;19909;-59
2023/02/22 03:02:48;;;;;;;;;;;;;;;;;;5032418;28;19913;-59
2023/02/22 03:05:14;;;;;;;;;;;;;;;;;;5032101;28;19971;-59
2023/02/22 03:07:41;;;;;;;;;;;;;;;;;;5030999;28;20458;-59
2023/02/22 03:10:07;;;;;;;;;;;;;;;;;;5031437;28;19928;-59
2023/02/22 03:12:33;;;;;;;;;;;;;;;;;;5030074;28;19960;-58
2023/02/22 03:15:00;;;;;;;;;;;;;;;;;;5029271;28;19998;-59
2023/02/22 03:17:29;;;;;;;;;;;;;;;;;;5029951;28;20060;-59
2023/02/22 03:19:54;;;;;;;;;;;;;;;;;;5031538;28;19913;-59
2023/02/22 03:22:22;;;;;;;;;;;;;;;;;;5031871;28;19964;-59
2023/02/22 03:24:51;;;;;;;;;;;;;;;;;;5032829;28;19909;-60
2023/02/22 03:27:20;;;;;;;;;;;;;;;;;;5031684;28;20004;-59
2023/02/22 03:29:46;;;;;;;;;;;;;;;;;;5031218;28;19917;-58
2023/02/22 03:32:13;;;;;;;;;;;;;;;;;;5029668;28;20006;-59
2023/02/22 03:34:39;;;;;;;;;;;;;;;;;;5031458;28;19924;-59
2023/02/22 03:37:05;;;;;;;;;;;;;;;;;;5031794;28;19967;-59
2023/02/22 03:39:31;;;;;;;;;;;;;;;;;;5032425;28;19917;-59
2023/02/22 03:41:57;;;;;;;;;;;;;;;;;;5031010;28;20007;-59
2023/02/22 03:44:23;;;;;;;;;;;;;;;;;;5031974;28;19913;-59
2023/02/22 03:46:49;;;;;;;;;;;;;;;;;;5030219;28;20387;-59
2023/02/22 03:49:15;;;;;;;;;;;;;;;;;;5031265;28;19917;-59
2023/02/22 03:51:41;;;;;;;;;;;;;;;;;;5031484;28;19924;-59
2023/02/22 03:54:07;;;;;;;;;;;;;;;;;;5032146;28;19917;-59
2023/02/22 03:56:35;;;;;;;;;;;;;;;;;;5031227;28;20132;-59
2023/02/22 03:59:01;;;;;;;;;;;;;;;;;;5031367;28;19913;-59
2023/02/22 04:01:27;;;;;;;;;;;;;;;;;;5030308;28;19971;-59
2023/02/22 04:03:52;;;;;;;;;;;;;;;;;;5029936;28;19917;-59
2023/02/22 04:06:18;;;;;;;;;;;;;;;;;;5030608;28;19921;-59
2023/02/22 04:08:44;;;;;;;;;;;;;;;;;;5032009;28;19962;-59
2023/02/22 04:11:10;;;;;;;;;;;;;;;;;;5031240;28;20463;-59
2023/02/22 04:13:36;;;;;;;;;;;;;;;;;;5027080;28;19913;-59
2023/02/22 04:16:02;;;;;;;;;;;;;;;;;;5031076;28;20303;-59
2023/02/22 04:18:28;;;;;;;;;;;;;;;;;;5031712;28;19921;-59
2023/02/22 04:20:54;;;;;;;;;;;;;;;;;;5031024;28;19952;-59
2023/02/22 04:23:20;;;;;;;;;;;;;;;;;;5032074;28;19972;-59
2023/02/22 04:25:46;;;;;;;;;;;;;;;;;;5029238;28;20004;-59
2023/02/22 04:28:12;;;;;;;;;;;;;;;;;;5030459;28;20014;-59
2023/02/22 04:30:37;;;;;;;;;;;;;;;;;;5031724;28;20074;-59
2023/02/22 04:33:03;;;;;;;;;;;;;;;;;;5031331;28;20395;-58
2023/02/22 04:35:29;;;;;;;;;;;;;;;;;;5031451;28;20047;-59
2023/02/22 04:37:55;;;;;;;;;;;;;;;;;;5030357;28;19913;-59
2023/02/22 04:40:21;;;;;;;;;;;;;;;;;;5031935;28;19913;-59
2023/02/22 04:42:47;;;;;;;;;;;;;;;;;;5033095;28;20328;-59
2023/02/22 04:45:13;;;;;;;;;;;;;;;;;;5035065;28;19917;-59
2023/02/22 04:47:39;;;;;;;;;;;;;;;;;;5034695;28;19913;-63
2023/02/22 04:50:05;;;;;;;;;;;;;;;;;;5032690;28;19956;-59
2023/02/22 04:52:31;;;;;;;;;;;;;;;;;;5034593;28;19917;-59
2023/02/22 04:54:57;;;;;;;;;;;;;;;;;;5035061;28;20007;-59
2023/02/22 04:57:23;;;;;;;;;;;;;;;;;;5034476;28;20380;-59
2023/02/22 04:59:50;;;;;;;;;;;;;;;;;;5034212;28;19920;-59
2023/02/22 05:02:15;;;;;;;;;;;;;;;;;;5030356;28;20353;-59
2023/02/22 05:04:42;;;;;;;;;;;;;;;;;;5020507;28;19913;-59
2023/02/22 05:07:07;;;;;;;;;;;;;;;;;;5025743;28;20008;-59
2023/02/22 05:09:33;;;;;;;;;;;;;;;;;;5028833;28;20004;-59
2023/02/22 05:11:59;;;;;;;;;;;;;;;;;;5029392;28;19953;-60
2023/02/22 05:14:26;;;;;;;;;;;;;;;;;;5031639;28;19916;-59
2023/02/22 05:16:52;;;;;;;;;;;;;;;;;;5033005;28;19924;-59
2023/02/22 05:19:18;;;;;;;;;;;;;;;;;;5030940;28;19952;-59
2023/02/22 05:21:44;;;;;;;;;;;;;;;;;;5032037;28;20440;-59
2023/02/22 05:24:10;;;;;;;;;;;;;;;;;;5027421;28;19909;-59
2023/02/22 05:26:35;;;;;;;;;;;;;;;;;;5028628;28;20465;-59
2023/02/22 05:29:01;;;;;;;;;;;;;;;;;;5031576;28;19913;-59
2023/02/22 05:31:27;;;;;;;;;;;;;;;;;;5025515;28;19992;-59
2023/02/22 05:33:53;;;;;;;;;;;;;;;;;;5031630;28;20010;-59
2023/02/22 05:36:19;;;;;;;;;;;;;;;;;;5033082;28;19937;-59
2023/02/22 05:38:45;;;;;;;;;;;;;;;;;;5030853;28;19967;-59
2023/02/22 05:41:11;;;;;;;;;;;;;;;;;;5032102;28;20428;-59
2023/02/22 05:43:37;;;;;;;;;;;;;;;;;;5030238;28;19963;-59
2023/02/22 05:46:03;;;;;;;;;;;;;;;;;;5031852;28;19953;-58
2023/02/22 05:48:29;;;;;;;;;;;;;;;;;;5029629;28;20024;-58
2023/02/22 05:50:55;;;;;;;;;;;;;;;;;;5026792;28;19963;-58
2023/02/22 05:53:22;;;;;;;;;;;;;;;;;;5029779;28;20388;-59
2023/02/22 05:55:48;;;;;;;;;;;;;;;;;;5032178;28;19917;-58
2023/02/22 05:58:14;;;;;;;;;;;;;;;;;;5022576;28;19952;-59
2023/02/22 06:00:40;;;;;;;;;;;;;;;;;;5028950;28;20364;-58
2023/02/22 06:03:06;;;;;;;;;;;;;;;;;;5031132;28;19958;-59
2023/02/22 06:05:32;;;;;;;;;;;;;;;;;;5026788;28;19921;-58
2023/02/22 06:07:58;;;;;;;;;;;;;;;;;;5032113;28;19940;-60
2023/02/22 06:10:24;;;;;;;;;;;;;;;;;;5030733;28;19952;-59
2023/02/22 06:12:50;;;;;;;;;;;;;;;;;;5026022;28;20038;-59
2023/02/22 06:15:16;;;;;;;;;;;;;;;;;;5012054;28;20004;-59
2023/02/22 06:17:42;;;;;;;;;;;;;;;;;;5025976;28;19923;-59
2023/02/22 06:20:08;;;;;;;;;;;;;;;;;;5027498;28;20319;-59
2023/02/22 06:22:34;;;;;;;;;;;;;;;;;;5026347;28;20426;-59
2023/02/22 06:24:59;;;;;;;;;;;;;;;;;;5031296;28;19913;-59
2023/02/22 06:27:25;;;;;;;;;;;;;;;;;;5031654;28;19914;-59
2023/02/22 06:29:51;;;;;;;;;;;;;;;;;;5029413;28;19959;-59
2023/02/22 06:32:17;;;;;;;;;;;;;;;;;;5031885;28;19928;-59
2023/02/22 06:34:43;;;;;;;;;;;;;;;;;;5030865;28;19915;-59
2023/02/22 06:37:09;;;;;;;;;;;;;;;;;;5030114;28;19941;-59
2023/02/22 06:39:35;;;;;;;;;;;;;;;;;;5030405;28;20596;-59
2023/02/22 06:42:01;;;;;;;;;;;;;;;;;;5026276;28;20000;-59
2023/02/22 06:44:27;;;;;;;;;;;;;;;;;;5032104;28;19913;-59
2023/02/22 06:46:52;;;;;;;;;;;;;;;;;;5029211;28;19959;-59
2023/02/22 06:49:18;;;;;;;;;;;;;;;;;;5021523;28;19953;-59
2023/02/22 06:51:44;;;;;;;;;;;;;;;;;;5029210;28;19925;-58
2023/02/22 06:54:10;;;;;;;;;;;;;;;;;;5030115;28;19968;-59
2023/02/22 06:56:36;;;;;;;;;;;;;;;;;;5025175;28;20440;-59
2023/02/22 06:59:02;;;;;;;;;;;;;;;;;;5031553;28;19917;-59
2023/02/22 07:01:28;;;;;;;;;;;;;;;;;;5029426;28;20337;-59
2023/02/22 07:03:54;;;;;;;;;;;;;;;;;;5029174;28;20012;-58
2023/02/22 07:06:20;;;;;;;;;;;;;;;;;;5028674;28;20010;-59
2023/02/22 07:08:45;;;;;;;;;;;;;;;;;;5029715;28;19913;-59
2023/02/22 07:11:11;;;;;;;;;;;;;;;;;;5023027;28;19917;-59
2023/02/22 07:13:37;;;;;;;;;;;;;;;;;;5027161;28;19951;-60
2023/02/22 07:16:03;;;;;;;;;;;;;;;;;;5029132;28;20392;-59
2023/02/22 07:18:29;;;;;;;;;;;;;;;;;;5030096;28;19919;-59
2023/02/22 07:20:57;;;;;;;;;;;;;;;;;;5024771;28;19925;-59
2023/02/22 07:23:23;;;;;;;;;;;;;;;;;;5024867;28;20043;-59
2023/02/22 07:25:49;;;;;;;;;;;;;;;;;;5022740;28;20458;-59
2023/02/22 07:28:15;;;;;;;;;;;;;;;;;;5029626;28;20376;-59
2023/02/22 07:30:41;;;;;;;;;;;;;;;;;;5025990;28;20119;-59
2023/02/22 07:33:06;;;;;;;;;;;;;;;;;;5029102;28;20008;-59
2023/02/22 07:35:32;;;;;;;;;;;;;;;;;;5028958;28;19923;-59
2023/02/22 07:37:58;;;;;;;;;;;;;;;;;;5027603;28;19952;-60
2023/02/22 07:40:24;;;;;;;;;;;;;;;;;;5025449;28;19923;-59
2023/02/22 07:42:50;;;;;;;;;;;;;;;;;;5029128;28;19913;-59
2023/02/22 07:45:17;;;;;;;;;;;;;;;;;;5029204;28;19914;-59
2023/02/22 07:47:43;;;;;;;;;;;;;;;;;;5030512;28;19932;-58
2023/02/22 07:50:08;;;;;;;;;;;;;;;;;;5026434;28;20380;-59
2023/02/22 07:52:35;;;;;;;;;;;;;;;;;;5026250;28;19924;-59
2023/02/22 07:55:01;;;;;;;;;;;;;;;;;;5027735;28;19913;-59
2023/02/22 07:57:27;;;;;;;;;;;;;;;;;;5029366;28;19917;-58
2023/02/22 07:59:53;;;;;;;;;;;;;;;;;;5029705;28;19972;-59
2023/02/22 08:02:19;;;;;;;;;;;;;;;;;;5029949;28;19909;-59
2023/02/22 08:04:45;;;;;;;;;;;;;;;;;;5021951;28;20022;-59
2023/02/22 08:07:11;;;;;;;;;;;;;;;;;;5010124;28;20273;-58
2023/02/22 08:09:37;;;;;;;;;;;;;;;;;;5027934;28;19917;-59
2023/02/22 08:12:03;;;;;;;;;;;;;;;;;;5028286;28;20536;-59
2023/02/22 08:14:29;;;;;;;;;;;;;;;;;;5030235;28;19924;-59
2023/02/22 08:16:54;;;;;;;;;;;;;;;;;;5028882;28;19982;-58
2023/02/22 08:19:21;;;;;;;;;;;;;;;;;;5033073;28;19953;-59
2023/02/22 08:21:47;;;;;;;;;;;;;;;;;;5033948;28;19913;-59
2023/02/22 08:24:13;;;;;;;;;;;;;;;;;;5033770;28;19960;-59
2023/02/22 08:26:39;;;;;;;;;;;;;;;;;;5032895;28;19913;-59
2023/02/22 08:29:05;;;;;;;;;;;;;;;;;;5033465;28;20001;-59
2023/02/22 08:31:31;;;;;;;;;;;;;;;;;;5024853;28;20661;-59
2023/02/22 08:33:57;;;;;;;;;;;;;;;;;;5031244;28;19960;-59
2023/02/22 08:36:23;;;;;;;;;;;;;;;;;;5032146;28;19924;-59
2023/02/22 08:38:49;;;;;;;;;;;;;;;;;;5032231;28;20392;-59
2023/02/22 08:41:15;;;;;;;;;;;;;;;;;;5031477;28;20299;-58
2023/02/22 08:43:40;;;;;;;;;;;;;;;;;;5032502;28;19988;-59
2023/02/22 08:46:06;;;;;;;;;;;;;;;;;;5033253;28;20315;-59
2023/02/22 08:48:32;;;;;;;;;;;;;;;;;;5033555;28;20014;-59
2023/02/22 08:50:58;;;;;;;;;;;;;;;;;;5027298;28;19913;-58
2023/02/22 08:53:24;;;;;;;;;;;;;;;;;;5029029;28;20396;-58
2023/02/22 08:55:50;;;;;;;;;;;;;;;;;;5033851;28;19913;-58
2023/02/22 08:58:16;;;;;;;;;;;;;;;;;;5029458;28;19970;-59
2023/02/22 09:00:43;;;;;;;;;;;;;;;;;;5031420;28;19971;-59
2023/02/22 09:03:09;;;;;;;;;;;;;;;;;;5028619;28;19921;-58
2023/02/22 09:05:35;;;;;;;;;;;;;;;;;;5029470;28;19982;-59
2023/02/22 09:08:01;;;;;;;;;;;;;;;;;;5030254;28;20021;-59
2023/02/22 09:10:27;;;;;;;;;;;;;;;;;;5031225;28;19925;-58
2023/02/22 09:12:56;;;;;;;;;;;;;;;;;;5032434;28;19930;-58
2023/02/22 09:15:21;;;;;;;;;;;;;;;;;;5032970;28;20283;-59
2023/02/22 09:17:47;;;;;;;;;;;;;;;;;;5033090;28;19968;-59
2023/02/22 09:20:13;;;;;;;;;;;;;;;;;;5030756;28;19959;-59
2023/02/22 09:22:39;;;;;;;;;;;;;;;;;;5033090;28;19939;-60
2023/02/22 09:25:05;;;;;;;;;;;;;;;;;;5031933;28;19917;-57
2023/02/22 09:27:31;;;;;;;;;;;;;;;;;;5014372;28;20395;-58
2023/02/22 09:29:57;;;;;;;;;;;;;;;;;;5030539;28;20008;-58
2023/02/22 09:32:23;;;;;;;;;;;;;;;;;;5030643;28;19971;-58
2023/02/22 09:34:51;;;;;;;;;;;;;;;;;;5031793;28;20324;-58
2023/02/22 09:37:17;;;;;;;;;;;;;;;;;;5030473;28;19917;-58
2023/02/22 09:39:43;;;;;;;;;;;;;;;;;;5031337;28;19925;-58
2023/02/22 09:42:09;;;;;;;;;;;;;;;;;;5032458;28;19995;-58
2023/02/22 09:44:35;;;;;;;;;;;;;;;;;;5031552;28;20384;-58
2023/02/22 09:47:01;;;;;;;;;;;;;;;;;;5032777;28;20352;-59
2023/02/22 09:49:27;;;;;;;;;;;;;;;;;;5026372;28;20325;-57
2023/02/22 09:51:53;;;;;;;;;;;;;;;;;;5030148;28;19935;-58
2023/02/22 09:54:19;;;;;;;;;;;;;;;;;;5032402;28;19914;-59
2023/02/22 09:56:45;;;;;;;;;;;;;;;;;;5014947;28;20432;-59
2023/02/22 09:59:11;;;;;;;;;;;;;;;;;;5032221;28;19917;-59
2023/02/22 10:01:38;;;;;;;;;;;;;;;;;;5031338;28;20005;-58
2023/02/22 10:04:04;;;;;;;;;;;;;;;;;;5031673;28;20694;-59
2023/02/22 10:06:30;;;;;;;;;;;;;;;;;;5030933;28;19964;-58
2023/02/22 10:08:56;;;;;;;;;;;;;;;;;;5030358;28;19952;-59
2023/02/22 10:11:22;;;;;;;;;;;;;;;;;;5027617;28;19969;-58
2023/02/22 10:13:47;;;;;;;;;;;;;;;;;;5027011;28;20300;-58
2023/02/22 10:16:14;;;;;;;;;;;;;;;;;;5029814;28;20407;-59
2023/02/22 10:18:41;;;;;;;;;;;;;;;;;;5029084;28;19913;-58
2023/02/22 10:21:07;;;;;;;;;;;;;;;;;;5032095;28;20392;-59
2023/02/22 10:23:35;;;;;;;;;;;;;;;;;;5030582;28;19917;-59
2023/02/22 10:26:01;;;;;;;;;;;;;;;;;;5032464;28;20043;-59
2023/02/22 10:28:29;;;;;;;;;;;;;;;;;;5030575;28;19972;-59
2023/02/22 10:30:55;;;;;;;;;;;;;;;;;;5031848;28;19920;-59
2023/02/22 10:33:21;;;;;;;;;;;;;;;;;;5028039;28;19917;-59
2023/02/22 10:35:50;;;;;;;;;;;;;;;;;;5032193;28;19952;-58
2023/02/22 10:38:16;;;;;;;;;;;;;;;;;;5031626;28;19919;-58
2023/02/22 10:40:42;;;;;;;;;;;;;;;;;;5031484;28;19909;-59
2023/02/22 10:43:08;;;;;;;;;;;;;;;;;;5030735;28;19917;-59
2023/02/22 10:45:35;;;;;;;;;;;;;;;;;;5031851;28;19913;-59
2023/02/22 10:48:01;;;;;;;;;;;;;;;;;;5030989;28;19920;-58
2023/02/22 10:50:28;;;;;;;;;;;;;;;;;;5031640;28;19916;-59
2023/02/22 10:52:54;;;;;;;;;;;;;;;;;;5032086;28;19921;-59
2023/02/22 10:55:20;;;;;;;;;;;;;;;;;;5031817;28;19935;-58
2023/02/22 10:57:46;;;;;;;;;;;;;;;;;;5029546;28;19917;-58
2023/02/22 11:00:12;;;;;;;;;;;;;;;;;;5031376;28;19932;-58
2023/02/22 11:02:38;;;;;;;;;;;;;;;;;;5030594;28;19940;-58
2023/02/22 11:05:04;;;;;;;;;;;;;;;;;;5029134;28;19944;-59
2023/02/22 11:07:30;;;;;;;;;;;;;;;;;;5031811;28;19915;-59
2023/02/22 11:09:56;;;;;;;;;;;;;;;;;;5030967;28;20459;-59
2023/02/22 11:12:22;;;;;;;;;;;;;;;;;;5031600;28;19928;-58
2023/02/22 11:14:48;;;;;;;;;;;;;;;;;;5031808;28;19960;-59
2023/02/22 11:17:14;;;;;;;;;;;;;;;;;;5029312;28;19917;-59
2023/02/22 11:19:39;;;;;;;;;;;;;;;;;;5031110;28;19944;-59
2023/02/22 11:22:05;;;;;;;;;;;;;;;;;;5027913;28;20291;-59
2023/02/22 11:24:31;;;;;;;;;;;;;;;;;;5028244;28;19917;-59
2023/02/22 11:26:57;;;;;;;;;;;;;;;;;;5031833;28;19988;-59
2023/02/22 11:29:23;;;;;;;;;;;;;;;;;;5013286;28;19913;-59
2023/02/22 11:31:50;;;;;;;;;;;;;;;;;;5030988;28;19928;-59
2023/02/22 11:34:16;;;;;;;;;;;;;;;;;;5031153;28;19913;-59
2023/02/22 11:36:41;;;;;;;;;;;;;;;;;;5027442;28;19966;-59
2023/02/22 11:39:10;;;;;;;;;;;;;;;;;;5030280;28;19910;-58
2023/02/22 11:41:36;;;;;;;;;;;;;;;;;;5039403;28;19948;-59
2023/02/22 11:44:02;;;;;;;;;;;;;;;;;;5025861;28;20360;-58
2023/02/22 11:46:27;;;;;;;;;;;;;;;;;;5031470;28;19920;-59
2023/02/22 11:48:53;;;;;;;;;;;;;;;;;;5029299;28;20012;-59
2023/02/22 11:51:20;;;;;;;;;;;;;;;;;;5030835;28;19952;-59
2023/02/22 11:53:46;;;;;;;;;;;;;;;;;;5016629;28;19913;-59
2023/02/22 11:56:12;;;;;;;;;;;;;;;;;;5015290;28;19956;-58
2023/02/22 11:58:38;;;;;;;;;;;;;;;;;;5034732;28;19963;-59
2023/02/22 12:01:05;;;;;;;;;;;;;;;;;;5032234;28;19974;-58
2023/02/22 12:03:31;;;;;;;;;;;;;;;;;;5033820;28;19921;-59
2023/02/22 12:06:00;;;;;;;;;;;;;;;;;;5031999;28;19919;-59
2023/02/22 12:08:27;;;;;;;;;;;;;;;;;;5029554;28;19913;-59
2023/02/22 12:10:54;;;;;;;;;;;;;;;;;;5032980;28;19932;-59
2023/02/22 12:13:20;;;;;;;;;;;;;;;;;;5035044;28;20364;-59
2023/02/22 12:15:46;;;;;;;;;;;;;;;;;;5034341;28;20008;-59
2023/02/22 12:18:11;;;;;;;;;;;;;;;;;;5035104;28;20014;-59
2023/02/22 12:20:38;;;;;;;;;;;;;;;;;;5030947;28;19913;-59
2023/02/22 12:23:05;;;;;;;;;;;;;;;;;;5030090;28;19956;-59
2023/02/22 12:25:31;;;;;;;;;;;;;;;;;;5032151;28;20082;-59
2023/02/22 12:27:57;;;;;;;;;;;;;;;;;;5032705;28;19996;-59
2023/02/22 12:30:23;;;;;;;;;;;;;;;;;;5025822;28;19917;-59
2023/02/22 12:32:49;;;;;;;;;;;;;;;;;;5034443;28;19967;-59
2023/02/22 12:35:15;;;;;;;;;;;;;;;;;;5033092;28;20311;-59
2023/02/22 12:37:41;;;;;;;;;;;;;;;;;;5033585;28;19956;-58
2023/02/22 12:40:07;;;;;;;;;;;;;;;;;;5021538;28;19956;-59
2023/02/22 12:42:33;;;;;;;;;;;;;;;;;;5030047;28;19924;-59
2023/02/22 12:44:59;;;;;;;;;;;;;;;;;;5031592;28;20016;-58
2023/02/22 12:47:25;;;;;;;;;;;;;;;;;;5030586;28;20432;-59
2023/02/22 12:49:51;;;;;;;;;;;;;;;;;;5022926;28;19924;-58
2023/02/22 12:52:16;;;;;;;;;;;;;;;;;;5031389;28;20395;-58
2023/02/22 12:54:42;;;;;;;;;;;;;;;;;;5030631;28;19917;-59
2023/02/22 12:57:08;;;;;;;;;;;;;;;;;;5028698;28;19986;-59
2023/02/22 12:59:34;;;;;;;;;;;;;;;;;;5030214;28;19994;-59
2023/02/22 13:02:00;;;;;;;;;;;;;;;;;;5031305;28;19913;-58
2023/02/22 13:04:26;;;;;;;;;;;;;;;;;;5031422;28;19919;-59
2023/02/22 13:06:52;;;;;;;;;;;;;;;;;;5030378;28;19963;-58
2023/02/22 13:09:18;;;;;;;;;;;;;;;;;;5028776;28;20102;-59
2023/02/22 13:11:44;;;;;;;;;;;;;;;;;;5028436;28;19929;-59
2023/02/22 13:14:10;;;;;;;;;;;;;;;;;;5028271;28;19913;-58
2023/02/22 13:16:36;;;;;;;;;;;;;;;;;;5026011;28;19960;-59
2023/02/22 13:19:02;;;;;;;;;;;;;;;;;;5032526;28;19917;-59
2023/02/22 13:21:28;;;;;;;;;;;;;;;;;;5028655;28;20451;-59
2023/02/22 13:23:54;;;;;;;;;;;;;;;;;;5032582;28;19959;-59
2023/02/22 13:26:20;;;;;;;;;;;;;;;;;;5031673;28;19913;-59
2023/02/22 13:28:46;;;;;;;;;;;;;;;;;;5035991;28;19948;-59
2023/02/22 13:31:12;;;;;;;;;;;;;;;;;;5030839;28;19952;-59
2023/02/22 13:33:38;;;;;;;;;;;;;;;;;;5031602;28;19965;-59
2023/02/22 13:36:05;;;;;;;;;;;;;;;;;;5030834;28;19913;-58
2023/02/22 13:38:32;;;;;;;;;;;;;;;;;;5029842;28;19920;-59
2023/02/22 13:40:58;;;;;;;;;;;;;;;;;;5022965;28;19913;-59
2023/02/22 13:43:23;;;;;;;;;;;;;;;;;;5029776;28;19914;-59
2023/02/22 13:45:49;;;;;;;;;;;;;;;;;;5029551;28;20011;-59
2023/02/22 13:48:15;;;;;;;;;;;;;;;;;;5032819;28;20415;-59
2023/02/22 13:50:41;;;;;;;;;;;;;;;;;;5030319;28;19913;-59
2023/02/22 13:53:08;;;;;;;;;;;;;;;;;;5031666;28;19921;-59
2023/02/22 13:55:34;;;;;;;;;;;;;;;;;;5032205;28;20420;-59
2023/02/22 13:58:00;;;;;;;;;;;;;;;;;;5031510;28;20000;-59
2023/02/22 14:00:26;;;;;;;;;;;;;;;;;;5029697;28;19909;-58
2023/02/22 14:02:52;;;;;;;;;;;;;;;;;;5031020;28;20422;-59
2023/02/22 14:05:18;;;;;;;;;;;;;;;;;;5027627;28;19925;-59
2023/02/22 14:07:44;;;;;;;;;;;;;;;;;;5028098;28;19964;-59
2023/02/22 14:10:09;;;;;;;;;;;;;;;;;;5031092;28;19927;-59
2023/02/22 14:12:35;;;;;;;;;;;;;;;;;;5030545;28;19933;-59
2023/02/22 14:15:01;;;;;;;;;;;;;;;;;;5029244;28;20006;-58
2023/02/22 14:17:27;;;;;;;;;;;;;;;;;;5030493;28;20007;-59
2023/02/22 14:19:53;;;;;;;;;;;;;;;;;;5029117;28;19909;-59
2023/02/22 14:22:19;;;;;;;;;;;;;;;;;;5031622;28;19952;-59
2023/02/22 14:24:45;;;;;;;;;;;;;;;;;;5029522;28;19919;-59
2023/02/22 14:27:11;;;;;;;;;;;;;;;;;;5029875;28;19914;-59
2023/02/22 14:29:37;;;;;;;;;;;;;;;;;;5031387;28;19952;-59
2023/02/22 14:32:03;;;;;;;;;;;;;;;;;;5030259;28;20323;-59
2023/02/22 14:34:29;;;;;;;;;;;;;;;;;;5019149;28;19924;-59
2023/02/22 14:36:55;;;;;;;;;;;;;;;;;;5024993;28;19914;-59
2023/02/22 14:39:21;;;;;;;;;;;;;;;;;;5030092;28;20424;-59
2023/02/22 14:41:46;;;;;;;;;;;;;;;;;;5027145;28;20344;-59
2023/02/22 14:44:12;;;;;;;;;;;;;;;;;;5029795;28;20028;-59
2023/02/22 14:46:39;;;;;;;;;;;;;;;;;;5030968;28;19921;-59
2023/02/22 14:49:08;;;;;;;;;;;;;;;;;;5029947;28;20289;-59
2023/02/22 14:51:34;;;;;;;;;;;;;;;;;;5027857;28;19913;-58
2023/02/22 14:54:00;;;;;;;;;;;;;;;;;;5031009;28;19963;-59
2023/02/22 14:56:27;;;;;;;;;;;;;;;;;;5022553;28;20381;-58
2023/02/22 14:58:54;;;;;;;;;;;;;;;;;;5029857;28;20460;-58
2023/02/22 15:01:19;;;;;;;;;;;;;;;;;;5028343;28;19913;-59
2023/02/22 15:03:45;;;;;;;;;;;;;;;;;;5030293;28;19955;-59
2023/02/22 15:06:13;;;;;;;;;;;;;;;;;;5025624;28;19921;-59
2023/02/22 15:08:40;;;;;;;;;;;;;;;;;;5030003;28;20624;-59
2023/02/22 15:11:06;;;;;;;;;;;;;;;;;;5028942;28;19929;-59
2023/02/22 15:13:32;;;;;;;;;;;;;;;;;;5006860;28;19969;-59
2023/02/22 15:15:58;;;;;;;;;;;;;;;;;;5025605;28;19939;-59
2023/02/22 15:18:25;;;;;;;;;;;;;;;;;;5028846;28;19999;-59
2023/02/22 15:20:54;;;;;;;;;;;;;;;;;;5028763;28;19971;-59
2023/02/22 15:23:20;;;;;;;;;;;;;;;;;;5026266;28;19914;-59
2023/02/22 15:25:47;;;;;;;;;;;;;;;;;;5027243;28;19954;-59
2023/02/22 15:28:13;;;;;;;;;;;;;;;;;;5026833;28;19917;-59
2023/02/22 15:30:40;;;;;;;;;;;;;;;;;;5029293;28;19917;-59
2023/02/22 15:33:06;;;;;;;;;;;;;;;;;;5026969;28;19920;-59
2023/02/22 15:35:32;;;;;;;;;;;;;;;;;;5029483;28;19956;-59
2023/02/22 15:37:58;;;;;;;;;;;;;;;;;;5027112;28;20262;-59
2023/02/22 15:40:31;;;;;;;;;;;;;;;;;;5026047;28;19924;-58
2023/02/22 15:42:57;;;;;;;;;;;;;;;;;;5028312;28;20299;-59
2023/02/22 15:45:27;;;;;;;;;;;;;;;;;;5028448;28;19945;-59
2023/02/22 15:47:57;;;;;;;;;;;;;;;;;;5022929;28;19925;-59
2023/02/22 15:50:24;;;;;;;;;;;;;;;;;;5022609;28;19920;-59
2023/02/22 15:52:52;;;;;;;;;;;;;;;;;;5026588;28;20442;-59
2023/02/22 15:55:17;;;;;;;;;;;;;;;;;;5025532;28;20364;-59
2023/02/22 15:57:43;;;;;;;;;;;;;;;;;;5022827;28;19995;-59
2023/02/22 16:00:11;;;;;;;;;;;;;;;;;;5023859;28;19948;-59
2023/02/22 16:02:37;;;;;;;;;;;;;;;;;;5029705;28;19917;-59
2023/02/22 16:05:03;;;;;;;;;;;;;;;;;;5028422;28;20377;-59
2023/02/22 16:07:29;;;;;;;;;;;;;;;;;;5029796;28;19928;-59
2023/02/22 16:09:55;;;;;;;;;;;;;;;;;;5029777;28;19913;-58
2023/02/22 16:12:21;;;;;;;;;;;;;;;;;;5029058;28;19968;-59
2023/02/22 16:14:51;;;;;;;;;;;;;;;;;;5027303;28;20299;-59
2023/02/22 16:17:17;;;;;;;;;;;;;;;;;;5025616;28;19920;-59
2023/02/22 16:19:43;;;;;;;;;;;;;;;;;;5023242;28;19994;-59
2023/02/22 16:22:12;;;;;;;;;;;;;;;;;;5022692;28;20004;-59
2023/02/22 16:24:38;;;;;;;;;;;;;;;;;;5024896;28;19960;-59
2023/02/22 16:27:04;;;;;;;;;;;;;;;;;;5025508;28;19963;-59
2023/02/22 16:29:30;;;;;;;;;;;;;;;;;;5023717;28;19913;-59
2023/02/22 16:31:56;;;;;;;;;;;;;;;;;;5027577;28;19921;-59
2023/02/22 16:34:22;;;;;;;;;;;;;;;;;;5026135;28;19921;-58
2023/02/22 16:36:50;;;;;;;;;;;;;;;;;;5013210;28;20048;-59
2023/02/22 16:39:17;;;;;;;;;;;;;;;;;;5010108;28;19921;-59
2023/02/22 16:41:43;;;;;;;;;;;;;;;;;;5023879;28;19928;-58